Time;durP1;ratioP1;P1;durP2;ratioP2;P2;SDS_P1;SDS_P2;PMS_P1;PMS_P2;Temp;Humidity;BMP_temperature;BMP_pressure;BME280_temperature;BME280_humidity;BME280_pressure;Samples;Min_cycle;Max_cycle;Signal;HPM_P1;HPM_P2
2021/12/23 00:01:12;;;;;;;27.25;10.25;;;;;;;;;;5015035;28;20049;-54
2021/12/23 00:03:38;;;;;;;35.10;11.63;;;;;;;;;;5016796;28;20451;-53
2021/12/23 00:06:03;;;;;;;25.58;9.35;;;;;;;;;;5017897;28;20050;-54
2021/12/23 00:08:29;;;;;;;21.52;8.70;;;;;;;;;;5019856;28;20116;-50
2021/12/23 00:10:54;;;;;;;23.63;10.30;;;;;;;;;;5011653;28;20477;-51
2021/12/23 00:13:20;;;;;;;29.55;10.15;;;;;;;;;;5014951;28;20603;-53
2021/12/23 00:23:47;;;;;;;37.95;11.50;;;;;;;;;;5015214;28;20036;-53
2021/12/23 00:26:12;;;;;;;25.88;9.27;;;;;;;;;;5008724;28;20026;-57
2021/12/23 00:28:38;;;;;;;36.83;10.50;;;;;;;;;;5017981;28;20335;-50
2021/12/23 00:31:06;;;;;;;37.33;10.90;;;;;;;;;;5015465;28;20360;-52
2021/12/23 00:33:33;;;;;;;26.08;8.73;;;;;;;;;;5019192;28;20029;-53
2021/12/23 00:35:59;;;;;;;29.55;9.18;;;;;;;;;;5014706;28;20134;-54
2021/12/23 00:38:32;;;;;;;42.95;9.32;;;;;;;;;;5016160;28;20485;-50
2021/12/23 00:41:00;;;;;;;30.33;8.65;;;;;;;;;;5015962;28;20472;-54
2021/12/23 00:43:25;;;;;;;28.30;7.97;;;;;;;;;;5013984;28;20049;-53
2021/12/23 00:45:51;;;;;;;29.98;7.82;;;;;;;;;;5014464;28;20068;-55
2021/12/23 00:48:17;;;;;;;27.42;9.30;;;;;;;;;;5021699;28;20056;-53
2021/12/23 00:50:43;;;;;;;39.00;11.45;;;;;;;;;;5013612;28;20061;-53
2021/12/23 00:53:10;;;;;;;24.85;9.05;;;;;;;;;;5014300;28;20034;-53
2021/12/23 00:55:36;;;;;;;34.13;9.77;;;;;;;;;;5016090;28;20025;-50
2021/12/23 00:58:03;;;;;;;40.88;10.43;;;;;;;;;;5015305;28;20124;-55
2021/12/23 01:00:29;;;;;;;55.00;12.63;;;;;;;;;;5025372;28;20048;-53
2021/12/23 01:02:58;;;;;;;34.95;11.27;;;;;;;;;;5034673;28;20029;-53
2021/12/23 01:05:24;;;;;;;42.47;12.35;;;;;;;;;;5036651;28;20471;-51
2021/12/23 01:07:50;;;;;;;33.97;11.80;;;;;;;;;;5037598;28;20033;-53
2021/12/23 01:10:16;;;;;;;53.15;14.15;;;;;;;;;;5034000;28;20764;-53
2021/12/23 01:12:47;;;;;;;48.17;13.68;;;;;;;;;;5034432;28;20034;-53
2021/12/23 01:15:38;;;;;;;50.47;14.57;;;;;;;;;;5037262;28;20115;-53
2021/12/23 01:18:12;;;;;;;50.97;13.70;;;;;;;;;;5032289;28;20037;-53
2021/12/23 01:20:51;;;;;;;55.45;13.60;;;;;;;;;;5032792;28;20025;-53
2021/12/23 01:23:19;;;;;;;46.83;13.68;;;;;;;;;;5036556;28;20032;-53
2021/12/23 01:25:44;;;;;;;39.67;12.98;;;;;;;;;;5034402;28;20111;-54
2021/12/23 01:28:10;;;;;;;45.88;13.60;;;;;;;;;;5037101;28;20064;-53
2021/12/23 01:30:37;;;;;;;58.17;12.68;;;;;;;;;;5032040;28;20300;-52
2021/12/23 01:33:05;;;;;;;55.92;12.55;;;;;;;;;;5034945;28;20086;-52
2021/12/23 01:35:31;;;;;;;51.53;12.05;;;;;;;;;;5033624;28;20132;-53
2021/12/23 01:37:57;;;;;;;57.35;13.30;;;;;;;;;;5031169;28;20598;-53
2021/12/23 01:40:26;;;;;;;32.20;9.70;;;;;;;;;;5031767;28;20097;-54
2021/12/23 01:42:51;;;;;;;38.97;9.75;;;;;;;;;;5034426;28;20024;-53
2021/12/23 01:45:20;;;;;;;35.90;7.38;;;;;;;;;;5035717;28;20078;-51
2021/12/23 01:47:47;;;;;;;32.10;6.60;;;;;;;;;;5033277;28;20029;-53
2021/12/23 01:50:16;;;;;;;28.77;7.05;;;;;;;;;;5031791;28;20025;-52
2021/12/23 01:52:42;;;;;;;18.98;5.63;;;;;;;;;;5034545;28;20025;-52
2021/12/23 01:55:09;;;;;;;21.15;5.88;;;;;;;;;;5035043;28;20747;-50
2021/12/23 01:57:35;;;;;;;22.70;4.20;;;;;;;;;;5037167;28;20112;-53
2021/12/23 02:00:06;;;;;;;12.38;3.75;;;;;;;;;;5033702;28;20045;-53
2021/12/23 02:02:32;;;;;;;12.23;3.55;;;;;;;;;;5037572;28;20021;-51
2021/12/23 02:04:58;;;;;;;11.07;3.20;;;;;;;;;;5032802;28;20510;-50
2021/12/23 02:07:23;;;;;;;11.77;2.78;;;;;;;;;;5032287;28;20068;-50
2021/12/23 02:09:49;;;;;;;12.75;2.60;;;;;;;;;;5036662;28;20099;-50
2021/12/23 02:12:15;;;;;;;10.27;2.58;;;;;;;;;;5031285;28;20057;-53
2021/12/23 02:14:41;;;;;;;4.35;1.98;;;;;;;;;;5029844;28;20029;-52
2021/12/23 02:17:06;;;;;;;9.23;2.22;;;;;;;;;;5033771;28;20043;-53
2021/12/23 02:19:32;;;;;;;5.00;2.25;;;;;;;;;;5035338;28;20040;-52
2021/12/23 02:21:59;;;;;;;7.20;2.10;;;;;;;;;;5034042;28;20048;-54
2021/12/23 02:24:25;;;;;;;9.60;2.08;;;;;;;;;;5030483;28;20864;-52
2021/12/23 02:26:50;;;;;;;12.65;2.38;;;;;;;;;;5037202;28;20175;-53
2021/12/23 02:29:16;;;;;;;14.48;2.42;;;;;;;;;;5030894;28;20286;-54
2021/12/23 02:31:49;;;;;;;11.55;2.20;;;;;;;;;;5036438;28;20434;-53
2021/12/23 02:34:17;;;;;;;11.68;2.60;;;;;;;;;;5030053;28;20127;-54
2021/12/23 02:36:49;;;;;;;16.25;2.97;;;;;;;;;;5034587;28;20198;-53
2021/12/23 02:39:14;;;;;;;15.07;3.05;;;;;;;;;;5020367;28;20052;-55
2021/12/23 02:41:43;;;;;;;8.95;2.60;;;;;;;;;;5032355;28;20206;-53
2021/12/23 02:44:09;;;;;;;11.95;2.20;;;;;;;;;;5030585;28;20086;-53
2021/12/23 02:46:35;;;;;;;10.18;2.35;;;;;;;;;;5037091;28;20065;-52
2021/12/23 02:49:02;;;;;;;11.73;2.05;;;;;;;;;;5032294;28;20090;-52
2021/12/23 02:51:28;;;;;;;9.40;1.70;;;;;;;;;;5032597;28;20029;-53
2021/12/23 02:53:53;;;;;;;17.63;2.67;;;;;;;;;;5030515;28;20036;-52
2021/12/23 02:56:19;;;;;;;5.75;1.38;;;;;;;;;;5031761;28;20473;-51
2021/12/23 02:58:45;;;;;;;9.25;1.60;;;;;;;;;;5034105;28;20492;-54
2021/12/23 03:01:12;;;;;;;6.63;1.40;;;;;;;;;;5036550;28;20529;-54
2021/12/23 03:03:39;;;;;;;10.63;1.70;;;;;;;;;;5043323;28;20471;-53
2021/12/23 03:06:05;;;;;;;12.52;1.67;;;;;;;;;;5036263;28;20053;-53
2021/12/23 03:08:35;;;;;;;11.65;1.55;;;;;;;;;;5036856;28;20420;-53
2021/12/23 03:11:01;;;;;;;7.07;1.63;;;;;;;;;;5036844;28;20543;-53
2021/12/23 03:13:27;;;;;;;6.50;1.70;;;;;;;;;;5040715;28;20033;-53
2021/12/23 03:15:52;;;;;;;11.88;1.92;;;;;;;;;;5039634;28;20067;-52
2021/12/23 03:18:18;;;;;;;5.00;1.55;;;;;;;;;;5038101;28;20090;-52
2021/12/23 03:20:44;;;;;;;11.55;1.80;;;;;;;;;;5038334;28;20492;-54
2021/12/23 03:23:09;;;;;;;4.30;1.38;;;;;;;;;;5034986;28;20035;-54
2021/12/23 03:25:35;;;;;;;9.70;1.77;;;;;;;;;;5034042;28;20094;-55
2021/12/23 03:28:01;;;;;;;10.10;1.30;;;;;;;;;;5035529;28;20046;-52
2021/12/23 03:30:26;;;;;;;8.07;1.33;;;;;;;;;;5038390;28;20131;-53
2021/12/23 03:32:52;;;;;;;21.77;1.85;;;;;;;;;;5033966;28;20259;-53
2021/12/23 03:35:17;;;;;;;7.25;2.22;;;;;;;;;;5034489;28;20021;-54
2021/12/23 03:37:44;;;;;;;8.20;1.75;;;;;;;;;;5038060;28;20040;-55
2021/12/23 03:40:11;;;;;;;6.72;1.63;;;;;;;;;;5035171;28;20037;-53
2021/12/23 03:42:36;;;;;;;10.27;1.80;;;;;;;;;;5034726;28;20060;-54
2021/12/23 03:45:03;;;;;;;9.55;1.83;;;;;;;;;;5035027;28;20063;-54
2021/12/23 03:47:29;;;;;;;8.13;1.30;;;;;;;;;;5037327;28;20444;-55
2021/12/23 03:49:54;;;;;;;8.90;1.60;;;;;;;;;;5038397;28;20092;-54
2021/12/23 03:52:20;;;;;;;13.90;2.88;;;;;;;;;;5034701;28;20036;-54
2021/12/23 03:54:45;;;;;;;13.77;2.00;;;;;;;;;;5035032;28;20108;-51
2021/12/23 03:57:11;;;;;;;12.85;1.83;;;;;;;;;;5036848;28;20451;-55
2021/12/23 03:59:37;;;;;;;9.10;2.22;;;;;;;;;;5034507;28;20073;-53
2021/12/23 04:02:03;;;;;;;15.57;2.47;;;;;;;;;;5039196;28;20583;-52
2021/12/23 04:04:28;;;;;;;13.07;2.80;;;;;;;;;;5039004;28;20040;-54
2021/12/23 04:06:54;;;;;;;14.63;2.95;;;;;;;;;;5032736;28;20053;-52
2021/12/23 04:09:19;;;;;;;17.83;3.15;;;;;;;;;;5035399;28;20025;-49
2021/12/23 04:11:45;;;;;;;21.92;3.38;;;;;;;;;;5038080;28;20301;-52
2021/12/23 04:14:10;;;;;;;31.88;4.80;;;;;;;;;;5037658;28;20064;-51
2021/12/23 04:16:36;;;;;;;25.30;4.38;;;;;;;;;;5030919;28;20068;-52
2021/12/23 04:19:07;;;;;;;23.10;3.40;;;;;;;;;;5033206;28;20408;-52
2021/12/23 04:21:32;;;;;;;28.60;4.25;;;;;;;;;;5039248;28;20064;-52
2021/12/23 04:23:58;;;;;;;32.38;4.38;;;;;;;;;;5033112;28;20021;-53
2021/12/23 04:26:23;;;;;;;29.27;5.15;;;;;;;;;;5034289;28;20033;-53
2021/12/23 04:28:49;;;;;;;42.10;4.60;;;;;;;;;;5037737;28;20041;-54
2021/12/23 04:31:18;;;;;;;23.63;4.00;;;;;;;;;;5036648;28;20040;-52
2021/12/23 04:33:45;;;;;;;32.47;5.00;;;;;;;;;;5033931;28;20041;-54
2021/12/23 04:36:11;;;;;;;24.38;4.03;;;;;;;;;;5034538;28;20052;-52
2021/12/23 04:38:38;;;;;;;22.67;4.88;;;;;;;;;;5033209;28;20120;-54
2021/12/23 04:41:04;;;;;;;34.78;4.57;;;;;;;;;;5032286;28;20025;-52
2021/12/23 04:43:29;;;;;;;33.08;5.10;;;;;;;;;;5031880;28;20025;-54
2021/12/23 04:45:55;;;;;;;31.35;5.30;;;;;;;;;;5032442;28;20033;-53
2021/12/23 04:48:20;;;;;;;27.60;4.90;;;;;;;;;;5034205;28;20084;-55
2021/12/23 04:50:46;;;;;;;30.42;5.47;;;;;;;;;;5033566;28;20025;-52
2021/12/23 04:53:11;;;;;;;28.75;4.70;;;;;;;;;;5033941;28;20496;-54
2021/12/23 04:55:37;;;;;;;29.00;4.22;;;;;;;;;;5031923;28;20045;-53
2021/12/23 04:58:02;;;;;;;25.27;4.50;;;;;;;;;;5032683;28;20035;-54
2021/12/23 05:00:28;;;;;;;32.70;5.57;;;;;;;;;;5031315;28;20373;-53
2021/12/23 05:02:53;;;;;;;38.80;5.30;;;;;;;;;;5038031;28;20064;-53
2021/12/23 05:05:19;;;;;;;33.33;5.75;;;;;;;;;;5030170;28;20506;-49
2021/12/23 05:07:45;;;;;;;43.20;6.97;;;;;;;;;;4994013;28;1200461;-51
2021/12/23 05:10:13;;;;;;;30.10;6.05;;;;;;;;;;5036549;28;20037;-54
2021/12/23 05:12:46;;;;;;;34.20;6.95;;;;;;;;;;5035368;28;20079;-50
2021/12/23 05:15:14;;;;;;;52.47;7.63;;;;;;;;;;5036436;28;20057;-51
2021/12/23 05:17:40;;;;;;;47.83;7.18;;;;;;;;;;5041025;28;20047;-51
2021/12/23 05:20:08;;;;;;;46.53;6.53;;;;;;;;;;5035807;28;20032;-54
2021/12/23 05:22:33;;;;;;;39.42;6.72;;;;;;;;;;5034535;28;20025;-52
2021/12/23 05:24:59;;;;;;;35.83;5.90;;;;;;;;;;5031169;28;20022;-53
2021/12/23 05:27:25;;;;;;;43.00;7.22;;;;;;;;;;5037324;28;20061;-55
2021/12/23 05:29:50;;;;;;;32.17;6.82;;;;;;;;;;5030103;28;20040;-52
2021/12/23 05:32:17;;;;;;;59.28;7.95;;;;;;;;;;5031059;28;20025;-51
2021/12/23 05:34:42;;;;;;;46.78;7.43;;;;;;;;;;5039021;28;20110;-53
2021/12/23 05:37:08;;;;;;;39.28;7.47;;;;;;;;;;5032640;28;20429;-55
2021/12/23 05:39:34;;;;;;;52.13;8.25;;;;;;;;;;5035591;28;20401;-51
2021/12/23 05:41:59;;;;;;;55.67;9.25;;;;;;;;;;5038145;28;20037;-53
2021/12/23 05:44:25;;;;;;;60.35;8.38;;;;;;;;;;5037476;28;20458;-53
2021/12/23 05:46:50;;;;;;;40.70;6.85;;;;;;;;;;5034223;28;20036;-53
2021/12/23 05:49:16;;;;;;;40.65;7.15;;;;;;;;;;5035916;28;20108;-53
2021/12/23 05:51:41;;;;;;;38.15;6.97;;;;;;;;;;5031864;28;20187;-54
2021/12/23 05:54:07;;;;;;;43.17;7.70;;;;;;;;;;5039174;28;20068;-55
2021/12/23 05:56:32;;;;;;;33.28;7.97;;;;;;;;;;5028275;28;20400;-54
2021/12/23 05:58:58;;;;;;;33.60;6.75;;;;;;;;;;5039074;28;20025;-53
2021/12/23 06:01:24;;;;;;;26.90;6.00;;;;;;;;;;5029680;28;20040;-54
2021/12/23 06:03:50;;;;;;;18.13;3.83;;;;;;;;;;5036829;28;20037;-54
2021/12/23 06:06:16;;;;;;;19.00;4.53;;;;;;;;;;5036047;28;20041;-54
2021/12/23 06:08:42;;;;;;;7.30;1.50;;;;;;;;;;5034693;28;20029;-51
2021/12/23 06:11:08;;;;;;;9.88;2.25;;;;;;;;;;5032464;28;20056;-51
2021/12/23 06:13:34;;;;;;;7.97;1.55;;;;;;;;;;5033738;28;20048;-52
2021/12/23 06:15:59;;;;;;;5.93;1.30;;;;;;;;;;5037217;28;20032;-51
2021/12/23 06:18:25;;;;;;;10.35;2.50;;;;;;;;;;5033561;28;20028;-49
2021/12/23 06:20:51;;;;;;;8.73;1.65;;;;;;;;;;5034011;28;20080;-54
2021/12/23 06:23:16;;;;;;;2.90;0.80;;;;;;;;;;5035764;28;20115;-54
2021/12/23 06:25:42;;;;;;;6.18;1.50;;;;;;;;;;5037833;28;20064;-52
2021/12/23 06:28:08;;;;;;;2.80;0.85;;;;;;;;;;5034551;28;20040;-53
2021/12/23 06:30:34;;;;;;;2.83;0.77;;;;;;;;;;5033643;28;20049;-52
2021/12/23 06:32:59;;;;;;;5.30;1.13;;;;;;;;;;5031181;28;20029;-53
2021/12/23 06:35:29;;;;;;;7.20;1.70;;;;;;;;;;5038679;28;20083;-53
2021/12/23 06:37:56;;;;;;;12.70;1.75;;;;;;;;;;5032489;28;20037;-53
2021/12/23 06:40:22;;;;;;;8.65;1.92;;;;;;;;;;5034623;28;20574;-51
2021/12/23 06:42:48;;;;;;;7.07;1.75;;;;;;;;;;5033158;28;20527;-50
2021/12/23 06:45:15;;;;;;;9.07;1.38;;;;;;;;;;5031021;28;20029;-53
2021/12/23 06:47:41;;;;;;;9.15;2.15;;;;;;;;;;5031129;28;20033;-51
2021/12/23 06:50:09;;;;;;;8.32;1.45;;;;;;;;;;5031286;28;20040;-50
2021/12/23 06:52:36;;;;;;;4.43;1.27;;;;;;;;;;5034748;28;20036;-52
2021/12/23 06:55:03;;;;;;;6.22;1.00;;;;;;;;;;5032672;28;20033;-53
2021/12/23 06:57:29;;;;;;;5.57;0.90;;;;;;;;;;5034090;28;20024;-53
2021/12/23 06:59:55;;;;;;;3.67;1.20;;;;;;;;;;5033186;28;20040;-52
2021/12/23 07:02:21;;;;;;;5.82;1.92;;;;;;;;;;5033118;28;20265;-53
2021/12/23 07:04:46;;;;;;;4.30;1.10;;;;;;;;;;5031261;28;20034;-53
2021/12/23 07:07:19;;;;;;;4.50;0.77;;;;;;;;;;5035810;28;20060;-52
2021/12/23 07:09:45;;;;;;;3.72;1.00;;;;;;;;;;5029815;28;20461;-52
2021/12/23 07:12:12;;;;;;;4.45;0.93;;;;;;;;;;5029452;28;20031;-54
2021/12/23 07:14:39;;;;;;;3.70;0.90;;;;;;;;;;5038173;28;20029;-52
2021/12/23 07:17:06;;;;;;;4.60;0.60;;;;;;;;;;5036107;28;20064;-53
2021/12/23 07:19:32;;;;;;;4.07;0.88;;;;;;;;;;5033087;28;20060;-50
2021/12/23 07:21:58;;;;;;;1.45;0.77;;;;;;;;;;5031252;28;20076;-52
2021/12/23 07:24:23;;;;;;;2.97;0.80;;;;;;;;;;5033263;28;20092;-49
2021/12/23 07:26:49;;;;;;;1.95;0.70;;;;;;;;;;5029341;28;20071;-52
2021/12/23 07:29:15;;;;;;;6.53;1.83;;;;;;;;;;5036150;28;20489;-52
2021/12/23 07:31:40;;;;;;;10.23;1.48;;;;;;;;;;5029619;28;20124;-52
2021/12/23 07:34:06;;;;;;;4.85;2.08;;;;;;;;;;5032359;28;20348;-53
2021/12/23 07:36:31;;;;;;;4.13;1.38;;;;;;;;;;5033410;28;20028;-52
2021/12/23 07:38:57;;;;;;;12.02;1.52;;;;;;;;;;5032710;28;20114;-53
2021/12/23 07:41:26;;;;;;;3.67;1.30;;;;;;;;;;5029725;28;20032;-50
2021/12/23 07:43:59;;;;;;;5.45;1.52;;;;;;;;;;5028862;28;20028;-52
2021/12/23 07:46:27;;;;;;;8.57;1.40;;;;;;;;;;5033065;28;20041;-52
2021/12/23 07:48:54;;;;;;;7.80;1.63;;;;;;;;;;5036233;28;20798;-50
2021/12/23 07:51:20;;;;;;;7.05;1.90;;;;;;;;;;5040688;28;20472;-52
2021/12/23 07:53:46;;;;;;;5.80;1.73;;;;;;;;;;5037918;28;20029;-53
2021/12/23 07:56:12;;;;;;;6.95;2.38;;;;;;;;;;5038491;28;20491;-48
2021/12/23 07:58:37;;;;;;;7.18;2.40;;;;;;;;;;5034759;28;20052;-53
2021/12/23 08:01:03;;;;;;;5.13;2.15;;;;;;;;;;5029495;28;20410;-52
2021/12/23 08:03:28;;;;;;;8.18;2.50;;;;;;;;;;5035617;28;20041;-53
2021/12/23 08:05:54;;;;;;;19.50;2.53;;;;;;;;;;5032977;28;20033;-51
2021/12/23 08:08:20;;;;;;;5.60;2.58;;;;;;;;;;5035081;28;20041;-53
2021/12/23 08:10:46;;;;;;;8.98;2.92;;;;;;;;;;5029516;28;20076;-53
2021/12/23 08:13:11;;;;;;;12.18;3.50;;;;;;;;;;5033944;28;20032;-49
2021/12/23 08:15:37;;;;;;;8.73;3.95;;;;;;;;;;5034523;28;20036;-53
2021/12/23 08:18:03;;;;;;;18.92;4.55;;;;;;;;;;5036185;28;20059;-53
2021/12/23 08:20:29;;;;;;;13.55;3.90;;;;;;;;;;5034624;28;20024;-52
2021/12/23 08:22:55;;;;;;;12.40;3.58;;;;;;;;;;5031979;28;20036;-51
2021/12/23 08:25:22;;;;;;;7.68;3.78;;;;;;;;;;5030276;28;20206;-51
2021/12/23 08:27:48;;;;;;;13.98;4.15;;;;;;;;;;5028110;28;20512;-53
2021/12/23 08:30:17;;;;;;;11.80;3.25;;;;;;;;;;5035686;28;20044;-54
2021/12/23 08:32:43;;;;;;;7.75;3.47;;;;;;;;;;5036087;28;20104;-54
2021/12/23 08:35:09;;;;;;;12.75;3.40;;;;;;;;;;5038187;28;20464;-52
2021/12/23 08:37:35;;;;;;;12.05;3.20;;;;;;;;;;5039671;28;20029;-53
2021/12/23 08:40:02;;;;;;;16.30;4.03;;;;;;;;;;5031794;28;20064;-54
2021/12/23 08:42:28;;;;;;;14.15;3.08;;;;;;;;;;5040168;28;20025;-54
2021/12/23 08:44:53;;;;;;;13.77;2.95;;;;;;;;;;5034723;28;20044;-54
2021/12/23 08:47:19;;;;;;;11.40;3.28;;;;;;;;;;5043655;28;20519;-55
2021/12/23 08:49:45;;;;;;;26.30;12.15;;;;;;;;;;5029374;28;20503;-54
2021/12/23 08:52:12;;;;;;;19.45;4.70;;;;;;;;;;5041310;28;20164;-54
2021/12/23 08:54:38;;;;;;;14.45;4.25;;;;;;;;;;5036895;28;20277;-56
2021/12/23 08:57:07;;;;;;;12.45;2.75;;;;;;;;;;5037847;28;20029;-54
2021/12/23 08:59:32;;;;;;;21.98;1.95;;;;;;;;;;5029558;28;20218;-54
2021/12/23 09:01:58;;;;;;;9.85;1.20;;;;;;;;;;5034557;28;20121;-55
2021/12/23 09:04:24;;;;;;;13.40;1.25;;;;;;;;;;5035801;28;20119;-54
2021/12/23 09:06:50;;;;;;;6.93;2.00;;;;;;;;;;5034829;28;20376;-54
2021/12/23 09:09:16;;;;;;;9.90;2.90;;;;;;;;;;5035796;28;20037;-54
2021/12/23 09:11:41;;;;;;;12.95;3.45;;;;;;;;;;5036472;28;20033;-55
2021/12/23 09:14:08;;;;;;;20.63;4.65;;;;;;;;;;5035030;28;20042;-54
2021/12/23 09:16:33;;;;;;;19.63;3.92;;;;;;;;;;5035399;28;20067;-53
2021/12/23 09:18:59;;;;;;;18.52;4.57;;;;;;;;;;5030529;28;20500;-54
2021/12/23 09:21:24;;;;;;;14.75;3.97;;;;;;;;;;5034385;28;20512;-54
2021/12/23 09:23:50;;;;;;;6.63;1.38;;;;;;;;;;5038484;28;20602;-53
2021/12/23 09:26:16;;;;;;;9.63;2.05;;;;;;;;;;5038487;28;20114;-53
2021/12/23 09:34:30;;;;;;;9.80;1.00;;;;;;;;;;5022276;28;20059;-53
2021/12/23 09:36:55;;;;;;;8.60;0.50;;;;;;;;;;5023402;28;20670;-52
2021/12/23 09:39:22;;;;;;;8.00;0.88;;;;;;;;;;5034225;28;20292;-52
2021/12/23 09:41:47;;;;;;;12.88;1.08;;;;;;;;;;5038956;28;20404;-50
2021/12/23 09:44:15;;;;;;;11.32;1.15;;;;;;;;;;5035837;28;20029;-51
2021/12/23 09:46:41;;;;;;;17.00;1.45;;;;;;;;;;5039046;28;20025;-52
2021/12/23 09:49:07;;;;;;;13.13;1.30;;;;;;;;;;5034814;28;20037;-52
2021/12/23 09:51:34;;;;;;;9.98;1.05;;;;;;;;;;5033480;28;20021;-50
2021/12/23 09:54:04;;;;;;;10.80;0.63;;;;;;;;;;5037311;28;20258;-54
2021/12/23 09:56:31;;;;;;;15.73;1.20;;;;;;;;;;5032791;28;20033;-52
2021/12/23 09:58:58;;;;;;;9.95;0.90;;;;;;;;;;5030817;28;20079;-54
2021/12/23 10:01:25;;;;;;;25.60;1.65;;;;;;;;;;5030968;28;20029;-53
2021/12/23 10:03:51;;;;;;;9.95;1.38;;;;;;;;;;5036867;28;20040;-54
2021/12/23 10:06:17;;;;;;;14.55;1.25;;;;;;;;;;5031958;28;20079;-54
2021/12/23 10:08:44;;;;;;;10.85;0.93;;;;;;;;;;5032897;28;20071;-51
2021/12/23 10:38:28;;;;;;;12.98;1.30;;;;;;;;;;5034785;28;20068;-54
2021/12/23 10:40:57;;;;;;;17.45;0.90;;;;;;;;;;5035490;28;20027;-52
2021/12/23 10:43:30;;;;;;;5.60;0.80;;;;;;;;;;5032767;28;20082;-54
2021/12/23 10:46:01;;;;;;;13.57;1.10;;;;;;;;;;5031010;28;20103;-51
2021/12/23 10:48:30;;;;;;;7.63;1.33;;;;;;;;;;5036478;28;20079;-52
2021/12/23 10:51:08;;;;;;;13.18;1.50;;;;;;;;;;5032847;28;20112;-54
2021/12/23 10:54:17;;;;;;;14.95;0.82;;;;;;;;;;5032356;28;20511;-50
2021/12/23 10:59:19;;;;;;;10.85;1.88;;;;;;;;;;5035921;28;20039;-54
2021/12/23 11:02:00;;;;;;;14.57;2.90;;;;;;;;;;5029682;28;20021;-54
2021/12/23 11:04:26;;;;;;;12.23;3.05;;;;;;;;;;5036382;28;20036;-52
2021/12/23 11:07:11;;;;;;;12.30;2.05;;;;;;;;;;5033235;28;20099;-51
2021/12/23 11:09:54;;;;;;;8.93;1.30;;;;;;;;;;5030847;28;20108;-50
2021/12/23 11:35:45;;;;;;;10.90;2.17;;;;;;;;;;5034582;28;20043;-53
2021/12/23 11:38:08;;;;;;;16.17;2.25;;;;;;;;;;5035606;28;20043;-55
2021/12/23 11:45:44;;;;;;;10.50;2.00;;;;;;;;;;5033959;28;20500;-55
2021/12/23 11:48:10;;;;;;;8.02;1.60;;;;;;;;;;5035891;28;20154;-55
2021/12/23 11:50:52;;;;;;;9.77;1.20;;;;;;;;;;5035071;28;20037;-56
2021/12/23 11:53:18;;;;;;;10.65;1.50;;;;;;;;;;5035072;28;20151;-55
2021/12/23 11:55:45;;;;;;;7.30;1.60;;;;;;;;;;5045307;28;20134;-54
2021/12/23 11:58:11;;;;;;;8.15;1.10;;;;;;;;;;5039443;28;20179;-54
2021/12/23 12:00:42;;;;;;;5.75;1.42;;;;;;;;;;5041274;28;20075;-53
2021/12/23 12:03:11;;;;;;;8.13;1.58;;;;;;;;;;5034277;28;20041;-55
2021/12/23 12:05:38;;;;;;;4.30;1.20;;;;;;;;;;5033504;28;20030;-54
2021/12/23 12:08:09;;;;;;;4.82;1.08;;;;;;;;;;5038894;28;20052;-53
2021/12/23 12:10:37;;;;;;;4.60;1.08;;;;;;;;;;5035025;28;20400;-54
2021/12/23 12:13:08;;;;;;;5.40;0.50;;;;;;;;;;5037737;28;20408;-54
2021/12/23 12:15:39;;;;;;;7.68;0.95;;;;;;;;;;5039769;28;20021;-55
2021/12/23 12:18:07;;;;;;;3.27;0.40;;;;;;;;;;5033299;28;20036;-54
2021/12/23 12:20:38;;;;;;;3.38;1.13;;;;;;;;;;5036149;28;20040;-54
2021/12/23 12:23:19;;;;;;;4.65;0.50;;;;;;;;;;5035457;28;20025;-55
2021/12/23 12:25:56;;;;;;;2.83;0.32;;;;;;;;;;5049639;28;20073;-55
2021/12/23 12:28:28;;;;;;;5.53;0.93;;;;;;;;;;5031001;28;20475;-55
2021/12/23 12:30:53;;;;;;;11.25;1.02;;;;;;;;;;5041812;28;20075;-56
2021/12/23 12:33:19;;;;;;;10.85;1.13;;;;;;;;;;5041977;28;20060;-55
2021/12/23 12:36:02;;;;;;;10.88;0.95;;;;;;;;;;5036760;28;20111;-54
2021/12/23 12:38:41;;;;;;;9.77;1.10;;;;;;;;;;5035224;28;20076;-54
2021/12/23 12:41:17;;;;;;;4.55;0.90;;;;;;;;;;5039386;28;20822;-55
2021/12/23 12:46:14;;;;;;;7.22;0.95;;;;;;;;;;5034331;28;20061;-54
2021/12/23 12:49:16;;;;;;;4.38;0.90;;;;;;;;;;5041849;28;20548;-55
2021/12/23 12:51:45;;;;;;;3.28;0.90;;;;;;;;;;5034104;28;20095;-57
2021/12/23 12:54:17;;;;;;;5.88;0.80;;;;;;;;;;5039031;28;20037;-55
2021/12/23 12:56:57;;;;;;;3.88;1.42;;;;;;;;;;5036057;28;20052;-54
2021/12/23 12:59:26;;;;;;;10.57;1.92;;;;;;;;;;5036242;28;20035;-54
2021/12/23 13:01:54;;;;;;;6.38;0.60;;;;;;;;;;5038567;28;20507;-55
2021/12/23 13:04:34;;;;;;;6.65;0.60;;;;;;;;;;5032670;28;20488;-55
2021/12/23 13:07:27;;;;;;;4.55;0.40;;;;;;;;;;5031489;28;20050;-55
2021/12/23 13:10:18;;;;;;;7.32;0.70;;;;;;;;;;5038527;28;20025;-57
2021/12/23 13:12:48;;;;;;;8.35;0.80;;;;;;;;;;5043944;28;20033;-56
2021/12/23 13:15:19;;;;;;;7.40;0.70;;;;;;;;;;5034187;28;20100;-54
2021/12/23 13:17:58;;;;;;;10.45;0.68;;;;;;;;;;5032221;28;20036;-54
2021/12/23 13:20:34;;;;;;;6.85;0.57;;;;;;;;;;5031754;28;20028;-55
2021/12/23 13:23:03;;;;;;;12.57;1.35;;;;;;;;;;5035075;28;20496;-56
2021/12/23 13:25:29;;;;;;;11.95;1.13;;;;;;;;;;5036122;28;20132;-55
2021/12/23 13:27:54;;;;;;;9.00;1.30;;;;;;;;;;5036287;28;21908;-55
2021/12/23 13:30:20;;;;;;;7.25;1.23;;;;;;;;;;5036304;28;20030;-55
2021/12/23 13:33:01;;;;;;;11.82;1.00;;;;;;;;;;5035858;28;20037;-56
2021/12/23 13:35:28;;;;;;;12.77;0.98;;;;;;;;;;5033152;28;20037;-55
2021/12/23 13:37:53;;;;;;;8.60;0.88;;;;;;;;;;5033724;28;20087;-55
2021/12/23 13:40:34;;;;;;;12.20;1.13;;;;;;;;;;5032319;28;20032;-53
2021/12/23 13:43:00;;;;;;;12.93;1.15;;;;;;;;;;5033274;28;20029;-56
2021/12/23 13:45:27;;;;;;;12.68;1.20;;;;;;;;;;5033649;28;20032;-55
2021/12/23 13:47:56;;;;;;;11.73;1.40;;;;;;;;;;5030656;28;20083;-55
2021/12/23 13:50:23;;;;;;;12.20;1.05;;;;;;;;;;5035842;28;20384;-54
2021/12/23 13:52:51;;;;;;;17.90;1.38;;;;;;;;;;5036082;28;20036;-54
2021/12/23 13:55:20;;;;;;;10.07;0.95;;;;;;;;;;5035097;28;20029;-55
2021/12/23 13:57:55;;;;;;;19.35;1.50;;;;;;;;;;5033907;28;20346;-54
2021/12/23 14:00:35;;;;;;;12.95;0.98;;;;;;;;;;5035026;28;20431;-56
2021/12/23 14:03:04;;;;;;;16.65;0.95;;;;;;;;;;5037431;28;20025;-56
2021/12/23 14:05:30;;;;;;;19.48;1.70;;;;;;;;;;5033024;28;20037;-55
2021/12/23 14:07:56;;;;;;;15.68;2.10;;;;;;;;;;5041123;28;20057;-55
2021/12/23 14:10:26;;;;;;;15.70;1.25;;;;;;;;;;5031200;28;20543;-52
2021/12/23 14:13:03;;;;;;;21.25;2.08;;;;;;;;;;5034669;28;20443;-54
2021/12/23 14:15:35;;;;;;;14.27;1.52;;;;;;;;;;5032045;28;20056;-54
2021/12/23 14:18:15;;;;;;;21.73;2.70;;;;;;;;;;5030219;28;20492;-55
2021/12/23 14:23:32;;;;;;;18.23;1.45;;;;;;;;;;5037958;28;20025;-55
2021/12/23 14:26:10;;;;;;;18.48;1.50;;;;;;;;;;5035664;28;20110;-52
2021/12/23 14:28:43;;;;;;;16.25;2.05;;;;;;;;;;5034416;28;20519;-54
2021/12/23 14:31:11;;;;;;;14.65;1.65;;;;;;;;;;5034433;28;20028;-54
2021/12/23 14:33:42;;;;;;;17.48;1.75;;;;;;;;;;5034705;28;20044;-55
2021/12/23 14:36:16;;;;;;;16.17;1.25;;;;;;;;;;5031580;28;20021;-54
2021/12/23 14:38:53;;;;;;;18.10;1.33;;;;;;;;;;5032213;28;20131;-54
2021/12/23 14:41:19;;;;;;;21.38;1.67;;;;;;;;;;5030598;28;20025;-54
2021/12/23 14:43:53;;;;;;;21.17;2.40;;;;;;;;;;5035577;28;20511;-55
2021/12/23 14:46:41;;;;;;;21.85;1.85;;;;;;;;;;5027562;28;20017;-55
2021/12/23 14:51:39;;;;;;;21.33;2.05;;;;;;;;;;5031891;28;20037;-54
2021/12/23 14:54:05;;;;;;;28.17;1.88;;;;;;;;;;5031315;28;20111;-56
2021/12/23 14:56:30;;;;;;;18.20;2.53;;;;;;;;;;5033611;28;20860;-56
2021/12/23 14:59:12;;;;;;;16.05;2.28;;;;;;;;;;5039384;28;20028;-56
2021/12/23 15:01:41;;;;;;;26.30;2.20;;;;;;;;;;5039738;28;20032;-55
2021/12/23 15:04:15;;;;;;;24.70;3.88;;;;;;;;;;5046788;28;20037;-55
2021/12/23 15:07:07;;;;;;;23.17;2.08;;;;;;;;;;5043328;28;20049;-56
2021/12/23 15:09:38;;;;;;;12.13;2.10;;;;;;;;;;5037218;28;20025;-56
2021/12/23 15:12:19;;;;;;;19.58;2.10;;;;;;;;;;5041756;28;20447;-56
2021/12/23 15:14:51;;;;;;;23.08;4.10;;;;;;;;;;5041360;28;20037;-57
2021/12/23 15:17:24;;;;;;;31.55;2.58;;;;;;;;;;5043201;28;20588;-56
2021/12/23 15:19:52;;;;;;;17.00;2.22;;;;;;;;;;5035708;28;20119;-55
2021/12/23 15:22:24;;;;;;;19.15;2.72;;;;;;;;;;5044296;28;20052;-53
2021/12/23 15:25:10;;;;;;;23.05;4.20;;;;;;;;;;5036521;28;20032;-54
2021/12/23 15:27:41;;;;;;;30.70;3.50;;;;;;;;;;5035021;28;20071;-53
2021/12/23 15:30:21;;;;;;;26.45;2.35;;;;;;;;;;5036559;28;20040;-52
2021/12/23 15:32:47;;;;;;;17.15;1.77;;;;;;;;;;5037362;28;20033;-52
2021/12/23 15:35:17;;;;;;;24.25;2.42;;;;;;;;;;5036545;28;20095;-52
2021/12/23 15:37:48;;;;;;;23.50;2.28;;;;;;;;;;5036720;28;20159;-52
2021/12/23 15:40:21;;;;;;;28.05;2.33;;;;;;;;;;5037879;28;20079;-50
2021/12/23 15:42:48;;;;;;;34.58;5.22;;;;;;;;;;5042315;28;20049;-53
2021/12/23 15:45:13;;;;;;;22.55;3.72;;;;;;;;;;5041357;28;20037;-49
2021/12/23 15:47:39;;;;;;;26.85;4.78;;;;;;;;;;5042848;28;20033;-53
2021/12/23 15:50:07;;;;;;;23.05;2.92;;;;;;;;;;5043805;28;20098;-55
2021/12/23 15:52:32;;;;;;;30.90;3.33;;;;;;;;;;5038463;28;20178;-51
2021/12/23 15:54:58;;;;;;;16.23;2.63;;;;;;;;;;5039102;28;20543;-54
2021/12/23 15:57:24;;;;;;;26.70;2.83;;;;;;;;;;5033302;28;20111;-54
2021/12/23 15:59:54;;;;;;;25.50;3.90;;;;;;;;;;5038093;28;20043;-54